createdAt,value
2023-02-02T00:00:40.378Z,3.70
2023-02-02T00:03:30.241Z,3.70
2023-02-02T00:06:16.968Z,3.70
2023-02-02T00:09:04.283Z,3.70
2023-02-02T00:11:51.412Z,3.80
2023-02-02T00:14:38.302Z,3.90
2023-02-02T00:17:24.600Z,3.90
2023-02-02T00:20:12.765Z,3.90
2023-02-02T00:22:59.511Z,3.80
2023-02-02T00:25:46.079Z,3.70
2023-02-02T00:28:32.616Z,3.80
2023-02-02T00:31:19.353Z,3.80
2023-02-02T00:34:05.959Z,3.80
2023-02-02T00:36:54.060Z,3.80
2023-02-02T00:39:40.440Z,3.80
2023-02-02T00:42:26.978Z,3.80
2023-02-02T00:45:17.020Z,3.70
2023-02-02T00:48:03.598Z,3.70
2023-02-02T00:50:50.036Z,3.70
2023-02-02T00:53:38.018Z,3.80
2023-02-02T00:56:25.807Z,3.90
2023-02-02T00:59:12.160Z,3.80
2023-02-02T01:01:58.687Z,3.80
2023-02-02T01:04:45.049Z,3.90
2023-02-02T01:07:31.487Z,3.90
2023-02-02T01:10:19.814Z,4.00
2023-02-02T01:13:06.380Z,4.00
2023-02-02T01:15:57.154Z,4.00
2023-02-02T01:18:43.677Z,4.00
2023-02-02T01:21:30.221Z,4.10
2023-02-02T01:24:16.467Z,4.10
2023-02-02T01:27:04.378Z,4.10
2023-02-02T01:29:50.908Z,4.00
2023-02-02T01:32:37.143Z,4.00
2023-02-02T01:35:23.913Z,4.00
2023-02-02T01:38:10.742Z,3.90
2023-02-02T01:40:58.732Z,3.90
2023-02-02T01:43:56.197Z,3.90
2023-02-02T01:46:42.705Z,3.90
2023-02-02T01:49:29.285Z,3.80
2023-02-02T01:52:16.715Z,3.80
2023-02-02T01:55:08.441Z,3.90
2023-02-02T01:57:58.950Z,3.90
2023-02-02T02:00:47.162Z,3.80
2023-02-02T02:03:36.927Z,3.80
2023-02-02T02:06:25.877Z,3.70
2023-02-02T02:09:12.747Z,3.80
2023-02-02T02:11:59.375Z,3.80
2023-02-02T02:15:06.082Z,3.90
2023-02-02T02:18:03.079Z,3.80
2023-02-02T02:21:42.451Z,3.80
2023-02-02T02:25:27.007Z,3.80
2023-02-02T02:28:31.715Z,3.70
2023-02-02T02:31:55.928Z,3.80
2023-02-02T02:34:53.764Z,3.90
2023-02-02T02:37:48.867Z,4.00
2023-02-02T02:40:40.590Z,4.00
2023-02-02T02:43:32.883Z,3.90
2023-02-02T02:46:20.038Z,3.80
2023-02-02T02:49:10.099Z,3.80
2023-02-02T02:51:57.767Z,3.70
2023-02-02T02:54:49.765Z,3.70
2023-02-02T02:57:58.633Z,3.70
2023-02-02T03:01:00.285Z,3.80
2023-02-02T03:03:57.592Z,4.10
2023-02-02T03:06:51.398Z,4.30
2023-02-02T03:09:42.798Z,4.50
2023-02-02T03:12:29.552Z,4.60
2023-02-02T03:15:17.461Z,4.60
2023-02-02T03:18:04.009Z,4.70
2023-02-02T03:20:50.364Z,4.90
2023-02-02T03:23:38.602Z,4.80
2023-02-02T03:26:25.055Z,4.80
2023-02-02T03:29:11.549Z,4.90
2023-02-02T03:31:58.321Z,4.80
2023-02-02T03:34:44.688Z,4.80
2023-02-02T03:37:31.166Z,4.80
2023-02-02T03:40:19.469Z,4.80
2023-02-02T03:43:06.392Z,4.80
2023-02-02T03:45:57.621Z,4.70
2023-02-02T03:48:44.221Z,4.70
2023-02-02T03:51:30.613Z,4.70
2023-02-02T03:54:16.823Z,4.70
2023-02-02T03:57:04.555Z,4.70
2023-02-02T03:59:50.905Z,4.70
2023-02-02T04:02:37.155Z,4.60
2023-02-02T04:05:23.961Z,4.70
2023-02-02T04:08:10.829Z,4.70
2023-02-02T04:10:57.164Z,4.70
2023-02-02T04:13:44.851Z,4.70
2023-02-02T04:16:34.711Z,4.70
2023-02-02T04:19:21.690Z,4.80
2023-02-02T04:22:08.188Z,4.60
2023-02-02T04:24:54.915Z,4.80
2023-02-02T04:27:41.592Z,4.90
2023-02-02T04:30:29.372Z,4.90
2023-02-02T04:33:15.760Z,4.90
2023-02-02T04:36:02.160Z,5.00
2023-02-02T04:38:50.868Z,5.00
2023-02-02T04:41:37.150Z,4.90
2023-02-02T04:44:23.571Z,4.90
2023-02-02T04:47:11.370Z,4.80
2023-02-02T04:49:57.670Z,4.80
2023-02-02T04:52:44.076Z,4.70
2023-02-02T04:55:30.313Z,4.70
2023-02-02T04:58:16.873Z,4.70
2023-02-02T05:01:08.885Z,4.60
2023-02-02T05:03:57.417Z,4.70
2023-02-02T05:06:44.124Z,4.70
2023-02-02T05:09:30.469Z,4.60
2023-02-02T05:12:17.172Z,4.80
2023-02-02T05:15:05.483Z,4.70
2023-02-02T05:17:51.772Z,4.80
2023-02-02T05:20:39.539Z,4.80
2023-02-02T05:23:26.063Z,4.70
2023-02-02T05:26:16.571Z,4.70
2023-02-02T05:29:03.151Z,4.90
2023-02-02T05:31:49.870Z,4.90
2023-02-02T05:34:36.137Z,4.80
2023-02-02T05:37:23.855Z,4.90
2023-02-02T05:40:11.598Z,4.90
2023-02-02T05:42:58.072Z,4.90
2023-02-02T05:45:44.402Z,5.00
2023-02-02T05:48:30.854Z,5.00
2023-02-02T05:51:19.597Z,5.00
2023-02-02T05:54:07.637Z,5.00
2023-02-02T05:56:55.985Z,5.00
2023-02-02T05:59:42.660Z,5.00
2023-02-02T06:02:28.994Z,5.00
2023-02-02T06:05:15.379Z,5.00
2023-02-02T06:08:02.016Z,4.80
2023-02-02T06:10:49.849Z,5.00
2023-02-02T06:13:36.576Z,5.00
2023-02-02T06:16:23.029Z,5.00
2023-02-02T06:19:09.448Z,5.00
2023-02-02T06:21:56.229Z,4.90
2023-02-02T06:24:42.537Z,4.90
2023-02-02T06:27:30.244Z,4.90
2023-02-02T06:30:17.451Z,5.00
2023-02-02T06:33:03.803Z,4.90
2023-02-02T06:35:50.124Z,4.90
2023-02-02T06:38:36.393Z,5.00
2023-02-02T06:41:23.485Z,5.00
2023-02-02T06:44:11.577Z,5.00
2023-02-02T06:46:57.807Z,4.90
2023-02-02T06:49:44.140Z,5.00
2023-02-02T06:52:30.549Z,5.10
2023-02-02T06:55:17.255Z,5.00
2023-02-02T06:58:03.872Z,5.00
2023-02-02T07:00:51.696Z,4.90
2023-02-02T07:03:38.895Z,5.10
2023-02-02T07:06:27.105Z,5.20
2023-02-02T07:09:13.905Z,5.10
2023-02-02T07:12:00.471Z,5.10
2023-02-02T07:14:46.700Z,5.20
2023-02-02T07:17:34.641Z,5.20
2023-02-02T07:20:21.230Z,5.30
2023-02-02T07:23:07.761Z,5.30
2023-02-02T07:26:02.285Z,5.30
2023-02-02T07:28:48.982Z,5.40
2023-02-02T07:31:36.716Z,5.30
2023-02-02T07:34:25.223Z,5.30
2023-02-02T07:37:11.723Z,5.40
2023-02-02T07:39:58.157Z,5.40
2023-02-02T07:42:47.431Z,5.40
2023-02-02T07:45:33.667Z,5.40
2023-02-02T07:48:19.978Z,5.50
2023-02-02T07:51:09.599Z,5.60
2023-02-02T07:53:58.431Z,5.60
2023-02-02T07:56:44.954Z,5.60
2023-02-02T07:59:32.397Z,5.70
2023-02-02T08:02:19.056Z,5.70
2023-02-02T08:05:07.423Z,5.70
2023-02-02T08:07:55.290Z,5.70
2023-02-02T08:10:47.950Z,5.90
2023-02-02T08:13:34.479Z,5.90
2023-02-02T08:16:21.665Z,5.90
2023-02-02T08:19:07.879Z,6.00
2023-02-02T08:21:54.272Z,6.20
2023-02-02T08:24:42.962Z,6.20
2023-02-02T08:27:29.597Z,6.20
2023-02-02T08:30:16.089Z,6.30
2023-02-02T08:33:02.760Z,6.40
2023-02-02T08:35:49.177Z,6.50
2023-02-02T08:38:35.499Z,6.50
2023-02-02T08:41:25.049Z,6.50
2023-02-02T08:44:14.666Z,6.50
2023-02-02T08:47:01.189Z,6.60
2023-02-02T08:49:48.473Z,6.60
2023-02-02T08:52:34.827Z,6.60
2023-02-02T08:55:21.184Z,6.70
2023-02-02T08:58:10.038Z,6.70
2023-02-02T09:00:56.324Z,6.80
2023-02-02T09:03:42.605Z,6.90
2023-02-02T09:06:32.208Z,6.90
2023-02-02T09:09:18.628Z,7.00
2023-02-02T09:12:05.400Z,7.00
2023-02-02T09:14:52.986Z,7.10
2023-02-02T09:17:39.339Z,7.10
2023-02-02T09:20:25.694Z,7.20
2023-02-02T09:23:11.957Z,7.30
2023-02-02T09:25:58.919Z,7.20
2023-02-02T09:28:47.207Z,7.10
2023-02-02T09:31:38.150Z,7.30
2023-02-02T09:34:24.609Z,7.20
2023-02-02T09:37:10.919Z,7.30
2023-02-02T09:39:57.246Z,7.30
2023-02-02T09:43:02.780Z,7.40
2023-02-02T09:45:55.953Z,7.50
2023-02-02T09:48:52.367Z,7.50
2023-02-02T09:51:44.907Z,7.50
2023-02-02T09:54:38.613Z,7.30
2023-02-02T09:57:28.232Z,7.40
2023-02-02T10:00:26.970Z,7.50
2023-02-02T10:03:18.877Z,7.60
2023-02-02T10:06:15.506Z,7.60
2023-02-02T10:09:09.666Z,7.40
2023-02-02T10:12:01.355Z,7.50
2023-02-02T10:14:53.188Z,7.50
2023-02-02T10:17:45.649Z,7.70
2023-02-02T10:20:40.791Z,7.70
2023-02-02T10:23:31.906Z,7.80
2023-02-02T10:26:21.474Z,7.90
2023-02-02T10:29:16.460Z,7.90
2023-02-02T10:32:13.841Z,7.90
2023-02-02T10:35:14.205Z,7.90
2023-02-02T10:38:08.101Z,7.90
2023-02-02T10:41:03.609Z,8.10
2023-02-02T10:44:02.532Z,8.40
2023-02-02T10:46:53.484Z,8.50
2023-02-02T10:49:41.619Z,8.70
2023-02-02T10:52:34.875Z,8.60
2023-02-02T10:55:31.700Z,8.60
2023-02-02T10:58:27.610Z,8.50
2023-02-02T11:01:17.947Z,8.50
2023-02-02T11:04:22.703Z,8.40
2023-02-02T11:07:09.401Z,8.40
2023-02-02T11:09:55.783Z,8.20
2023-02-02T11:12:51.023Z,8.20
2023-02-02T11:15:39.000Z,8.20
2023-02-02T11:18:29.700Z,8.10
2023-02-02T11:21:21.421Z,8.00
2023-02-02T11:24:21.916Z,8.00
2023-02-02T11:27:15.186Z,8.10
2023-02-02T11:30:11.351Z,8.10
2023-02-02T11:32:59.082Z,8.30
2023-02-02T11:35:55.283Z,8.30
2023-02-02T11:38:41.748Z,8.30
2023-02-02T11:41:32.779Z,8.40
2023-02-02T11:44:26.822Z,8.30
2023-02-02T11:47:21.346Z,8.20
2023-02-02T11:50:29.033Z,8.20
2023-02-02T11:53:24.941Z,8.20
2023-02-02T11:56:20.226Z,8.10
2023-02-02T11:59:06.684Z,8.00
2023-02-02T12:02:11.363Z,7.80
2023-02-02T12:05:27.549Z,7.80
2023-02-02T12:08:14.299Z,7.90
2023-02-02T12:11:03.204Z,7.90
2023-02-02T12:14:05.096Z,7.80
2023-02-02T12:17:02.980Z,7.80
2023-02-02T12:20:13.173Z,7.70
2023-02-02T12:23:22.273Z,7.80
2023-02-02T12:26:31.508Z,7.90
2023-02-02T12:29:35.423Z,7.80
2023-02-02T12:32:38.369Z,7.80
2023-02-02T12:35:41.407Z,7.70
2023-02-02T12:38:45.046Z,7.90
2023-02-02T12:41:43.486Z,8.10
2023-02-02T12:44:38.685Z,8.10
2023-02-02T12:47:29.558Z,8.20
2023-02-02T12:50:28.364Z,8.20
2023-02-02T12:53:28.852Z,8.00
2023-02-02T12:56:28.009Z,8.00
2023-02-02T12:59:28.753Z,8.00
2023-02-02T13:02:27.292Z,7.80
2023-02-02T13:05:30.536Z,7.70
2023-02-02T13:08:21.227Z,7.60
2023-02-02T13:11:29.804Z,7.60
2023-02-02T13:14:24.316Z,7.60
2023-02-02T13:17:16.095Z,7.40
2023-02-02T13:20:06.389Z,7.40
2023-02-02T13:22:57.232Z,7.40
2023-02-02T13:25:48.739Z,7.40
2023-02-02T13:28:42.402Z,7.30
2023-02-02T13:31:36.914Z,7.40
2023-02-02T13:34:27.287Z,7.30
2023-02-02T13:37:23.068Z,7.40
2023-02-02T13:40:28.333Z,7.60
2023-02-02T13:43:25.879Z,7.50
2023-02-02T13:46:21.145Z,7.50
2023-02-02T13:49:13.402Z,7.60
2023-02-02T13:52:15.654Z,7.60
2023-02-02T13:55:46.206Z,7.80
2023-02-02T13:58:56.729Z,7.90
2023-02-02T14:01:45.987Z,7.90
2023-02-02T14:04:33.738Z,7.90
2023-02-02T14:07:29.405Z,8.00
2023-02-02T14:10:26.363Z,8.00
2023-02-02T14:13:37.341Z,8.10
2023-02-02T14:16:43.057Z,8.00
2023-02-02T14:19:50.699Z,8.00
2023-02-02T14:22:47.812Z,7.90
2023-02-02T14:26:05.264Z,8.00
2023-02-02T14:28:52.249Z,8.00
2023-02-02T14:31:54.083Z,8.00
2023-02-02T14:34:41.409Z,7.90
2023-02-02T14:37:48.527Z,7.80
2023-02-02T14:40:49.613Z,7.70
2023-02-02T14:43:45.625Z,7.50
2023-02-02T14:46:40.759Z,7.50
2023-02-02T14:49:35.373Z,7.60
2023-02-02T14:52:24.116Z,7.60
2023-02-02T14:55:19.986Z,7.60
2023-02-02T14:58:08.597Z,7.50
2023-02-02T15:01:09.798Z,7.60
2023-02-02T15:03:57.942Z,7.50
2023-02-02T15:06:44.998Z,7.40
2023-02-02T15:09:39.213Z,7.50
2023-02-02T15:12:35.096Z,7.50
2023-02-02T15:15:24.502Z,7.50
2023-02-02T15:18:18.041Z,7.40
2023-02-02T15:21:08.989Z,7.40
2023-02-02T15:23:56.703Z,7.40
2023-02-02T15:26:44.567Z,7.40
2023-02-02T15:29:43.021Z,7.20
2023-02-02T15:32:31.293Z,7.10
2023-02-02T15:35:22.140Z,7.00
2023-02-02T15:38:17.240Z,7.00
2023-02-02T15:41:13.148Z,6.90
2023-02-02T15:43:59.999Z,6.80
2023-02-02T15:46:49.405Z,6.70
2023-02-02T15:49:36.951Z,6.70
2023-02-02T15:52:27.221Z,6.60
2023-02-02T15:55:22.639Z,6.60
2023-02-02T15:58:28.114Z,6.60
2023-02-02T16:01:18.183Z,6.50
2023-02-02T16:04:16.578Z,6.50
2023-02-02T16:07:03.251Z,6.60
2023-02-02T16:09:50.410Z,6.60
2023-02-02T16:12:40.888Z,6.60
2023-02-02T16:15:29.344Z,6.60
2023-02-02T16:18:16.435Z,6.50
2023-02-02T16:21:12.301Z,6.60
2023-02-02T16:24:00.141Z,6.60
2023-02-02T16:26:47.247Z,6.70
2023-02-02T16:29:35.215Z,6.70
2023-02-02T16:32:30.371Z,6.60
2023-02-02T16:35:32.869Z,6.70
2023-02-02T16:38:26.154Z,6.80
2023-02-02T16:41:14.491Z,6.70
2023-02-02T16:44:46.505Z,6.60
2023-02-02T16:47:38.830Z,6.50
2023-02-02T16:50:35.166Z,6.40
2023-02-02T16:53:25.032Z,6.40
2023-02-02T16:56:22.261Z,6.30
2023-02-02T16:59:18.095Z,6.30
2023-02-02T17:02:16.264Z,6.20
2023-02-02T17:05:08.798Z,6.10
2023-02-02T17:08:00.477Z,6.00
2023-02-02T17:11:03.601Z,6.00
2023-02-02T17:13:50.881Z,6.00
2023-02-02T17:16:37.534Z,6.10
2023-02-02T17:19:24.292Z,6.10
2023-02-02T17:22:11.809Z,6.10
2023-02-02T17:24:59.903Z,6.00
2023-02-02T17:27:47.981Z,5.90
2023-02-02T17:30:34.922Z,5.90
2023-02-02T17:33:22.069Z,5.80
2023-02-02T17:36:09.944Z,5.80
2023-02-02T17:38:56.941Z,5.70
2023-02-02T17:41:45.934Z,5.60
2023-02-02T17:44:34.771Z,5.50
2023-02-02T17:47:21.650Z,5.50
2023-02-02T17:50:08.467Z,5.40
2023-02-02T17:52:54.917Z,5.40
2023-02-02T17:55:44.213Z,5.50
2023-02-02T17:58:30.968Z,5.50
2023-02-02T18:01:18.692Z,5.50
2023-02-02T18:04:06.343Z,5.50
2023-02-02T18:06:52.634Z,5.40
2023-02-02T18:09:39.089Z,5.50
2023-02-02T18:12:25.640Z,5.40
2023-02-02T18:15:14.095Z,5.40
2023-02-02T18:18:02.432Z,5.40
2023-02-02T18:20:51.442Z,5.40
2023-02-02T18:23:38.928Z,5.40
2023-02-02T18:26:26.538Z,5.40
2023-02-02T18:29:13.517Z,5.30
2023-02-02T18:32:00.322Z,5.40
2023-02-02T18:34:51.227Z,5.20
2023-02-02T18:37:38.394Z,5.20
2023-02-02T18:40:24.768Z,5.20
2023-02-02T18:43:11.337Z,5.20
2023-02-02T18:46:06.092Z,5.10
2023-02-02T18:48:52.801Z,5.20
2023-02-02T18:51:41.875Z,5.20
2023-02-02T18:54:28.375Z,5.20
2023-02-02T18:57:18.184Z,5.20
2023-02-02T19:00:06.725Z,5.30
2023-02-02T19:02:53.245Z,5.30
2023-02-02T19:05:56.911Z,5.20
2023-02-02T19:08:45.127Z,5.30
2023-02-02T19:11:38.949Z,5.20
2023-02-02T19:14:31.007Z,5.20
2023-02-02T19:17:21.513Z,5.10
2023-02-02T19:20:22.498Z,5.10
2023-02-02T19:23:13.217Z,5.00
2023-02-02T19:26:01.053Z,5.20
2023-02-02T19:28:47.730Z,5.10
2023-02-02T19:31:34.418Z,5.20
2023-02-02T19:34:23.250Z,5.20
2023-02-02T19:37:23.993Z,5.20
2023-02-02T19:40:20.665Z,5.30
2023-02-02T19:43:21.322Z,5.30
2023-02-02T19:46:17.778Z,5.30
2023-02-02T19:49:13.083Z,5.20
2023-02-02T19:52:00.744Z,5.30
2023-02-02T19:54:49.015Z,5.20
2023-02-02T19:57:38.419Z,5.30
2023-02-02T20:00:29.146Z,5.30
2023-02-02T20:03:19.724Z,5.30
2023-02-02T20:06:06.311Z,5.30
2023-02-02T20:08:53.821Z,5.30
2023-02-02T20:11:41.785Z,5.30
2023-02-02T20:14:30.187Z,5.30
2023-02-02T20:17:27.276Z,5.30
2023-02-02T20:20:25.799Z,5.30
2023-02-02T20:23:30.634Z,5.20
2023-02-02T20:26:26.010Z,5.20
2023-02-02T20:29:18.264Z,5.30
2023-02-02T20:32:06.439Z,5.30
2023-02-02T20:34:55.930Z,5.30
2023-02-02T20:37:43.369Z,5.30
2023-02-02T20:40:31.296Z,5.30
2023-02-02T20:43:17.608Z,5.40
2023-02-02T20:46:04.112Z,5.40
2023-02-02T20:48:50.956Z,5.40
2023-02-02T20:51:40.580Z,5.40
2023-02-02T20:54:27.294Z,5.40
2023-02-02T20:57:13.931Z,5.40
2023-02-02T21:00:00.464Z,5.40
2023-02-02T21:02:48.994Z,5.40
2023-02-02T21:05:35.511Z,5.40
2023-02-02T21:08:23.127Z,5.40
2023-02-02T21:11:09.629Z,5.50
2023-02-02T21:13:57.293Z,5.40
2023-02-02T21:16:43.864Z,5.40
2023-02-02T21:19:30.498Z,5.40
2023-02-02T21:22:16.923Z,5.40
2023-02-02T21:25:04.641Z,5.30
2023-02-02T21:27:51.231Z,5.30
2023-02-02T21:30:37.585Z,5.40
2023-02-02T21:33:24.320Z,5.30
2023-02-02T21:36:27.122Z,5.40
2023-02-02T21:39:21.636Z,5.40
2023-02-02T21:42:16.298Z,5.40
2023-02-02T21:45:33.160Z,5.40
2023-02-02T21:48:30.521Z,5.30
2023-02-02T21:51:22.951Z,5.30
2023-02-02T21:54:20.370Z,5.20
2023-02-02T21:57:18.113Z,5.20
2023-02-02T22:00:21.767Z,5.20
2023-02-02T22:03:25.589Z,5.20
2023-02-02T22:06:24.882Z,5.20
2023-02-02T22:09:19.113Z,5.10
2023-02-02T22:12:17.162Z,5.10
2023-02-02T22:15:07.051Z,5.10
2023-02-02T22:17:53.461Z,5.00
2023-02-02T22:20:43.986Z,5.10
2023-02-02T22:23:30.396Z,5.10
2023-02-02T22:26:34.084Z,5.10
2023-02-02T22:29:24.405Z,5.10
2023-02-02T22:32:10.899Z,5.10
2023-02-02T22:34:57.316Z,5.10
2023-02-02T22:37:43.944Z,5.00
2023-02-02T22:40:30.932Z,5.00
2023-02-02T22:43:18.586Z,4.90
2023-02-02T22:46:06.951Z,4.90
2023-02-02T22:48:53.790Z,4.90
2023-02-02T22:51:40.177Z,4.90
2023-02-02T22:54:26.505Z,4.90
2023-02-02T22:57:13.025Z,4.90
2023-02-02T22:59:59.320Z,4.90
2023-02-02T23:02:47.387Z,4.90
2023-02-02T23:05:33.986Z,4.90
2023-02-02T23:08:20.466Z,5.00
2023-02-02T23:11:06.903Z,4.90
2023-02-02T23:13:53.152Z,4.90
2023-02-02T23:16:39.427Z,4.80
2023-02-02T23:19:27.269Z,4.90
2023-02-02T23:22:13.921Z,4.90
2023-02-02T23:25:00.550Z,4.80
2023-02-02T23:27:47.211Z,4.90
2023-02-02T23:30:33.960Z,4.90
2023-02-02T23:33:20.270Z,4.80
2023-02-02T23:36:08.691Z,4.80
2023-02-02T23:38:55.181Z,4.80
2023-02-02T23:41:41.573Z,4.70
2023-02-02T23:44:28.200Z,4.70
2023-02-02T23:47:14.575Z,4.70
2023-02-02T23:50:02.796Z,4.80
2023-02-02T23:52:50.730Z,4.70
2023-02-02T23:55:37.554Z,4.70
2023-02-02T23:58:23.968Z,4.60
